• Join FlightAware (Why Join?)
  • Login
  • US Flag 
03:20AM EST


 

Airport Tracker/Info


-or-


 

Live Flight TrackerFlight Track Log ✈ SKW5243 ✈ 09-May-2013 ✈ KXNA - KIAH

Flight Track Log - Related Links

Times and Time Zones

All times are in EDT time to prevent confusion due to time zone crossing. See the SKW5243 flight status page for this flight to view local times or setup timezone preferences in your user account.

Time Position Orientation Groundspeed Altitude Reporting Facility
EDT Latitude Longitude Course Direction KTS MPH feet Rate Location/Type
04:58PM 36.0798 -94.0900 176° South  Level FlightAware Approximate
04:59PM 35.9746 -94.0782 171° South  Level FlightAware Approximate
04:59PM 36.0636 -94.1469 176° South 264 304 10,400  Level Memphis Center
05:00PM 35.8703 -94.0574 171° South  Level FlightAware Approximate
05:01PM 35.7653 -94.0432 175° South  Level FlightAware Approximate
05:01PM 35.9383 -94.0822 157° South 246 283 14,600  Level Memphis Center
05:02PM 35.6600 -94.0327 175° South  Level FlightAware Approximate
05:02PM 35.8639 -94.0633 168° South 261 300 15,900  Level Memphis Center
05:03PM 35.5547 -94.0221 175° South  Level FlightAware Approximate
05:03PM 35.7753 -94.0261 161° South 283 326 17,200  Level Memphis Center
05:04PM 35.4541 -93.9973 176° South  Level FlightAware Approximate
05:04PM 35.6864 -93.9942 164° South 308 354 18,800  Level Memphis Center
05:05PM 35.3487 -93.9878 176° South  Level FlightAware Approximate
05:05PM 35.6039 -93.9625 163° South 337 388 20,100  Level Memphis Center
05:06PM 35.5111 -93.9278 163° South 342 394 21,600 1,200 Climbing Memphis Center
05:07PM 35.4161 -93.8931 163° South 347 399 22,600 1,080 Climbing Memphis Center
05:08PM 35.3192 -93.8561 163° South 359 413 23,800 1,080 Climbing Memphis Center
05:09PM 35.2181 -93.8186 163° South 369 425 24,800 600 Climbing Memphis Center
05:10PM 35.1169 -93.7817 163° South 376 433 25,000 540 Climbing Memphis Center
05:11PM 35.0114 -93.7444 164° South 386 444 25,900 900 Climbing Memphis Center
05:12PM 34.9042 -93.7044 163° South 395 455 26,900 540 Climbing Memphis Center
05:13PM 34.7906 -93.6647 164° South 402 463 27,000  Climbing Memphis Center
05:14PM 34.6808 -93.6225 162° South 415 478 27,000  Level Memphis Center
05:15PM 34.5653 -93.5828 164° South 420 483 27,000  Level Memphis Center
05:16PM 34.4578 -93.5436 163° South 415 478 27,100 780 Climbing Memphis Center
05:17PM 34.3522 -93.5069 164° South 409 471 28,600 1,380 Climbing Memphis Center
05:18PM 34.2528 -93.4731 164° South 395 455 29,900 900 Climbing Memphis Center
05:19PM 34.1556 -93.4369 163° South 374 430 30,400 480 Climbing Memphis Center
05:22PM 33.8922 -93.3400 163° South 395 455 31,700 420 Climbing Fort Worth Center
05:23PM 33.7911 -93.3047 164° South 385 443 32,000 120 Climbing Fort Worth Center
05:24PM 33.6853 -93.2647 163° South 385 443 32,000  Level Fort Worth Center
05:25PM 33.5756 -93.2275 164° South 390 449 32,000  Level Fort Worth Center
05:26PM 33.4658 -93.1906 164° South 404 465 32,000  Level Fort Worth Center
05:27PM 33.3539 -93.1511 164° South 410 472 32,000  Level Fort Worth Center
05:28PM 33.2567 -93.1161 163° South 410 472 32,000  Level Fort Worth Center
05:29PM 33.1447 -93.0767 164° South 410 472 32,000  Level Fort Worth Center
05:30PM 33.0350 -93.0375 163° South 410 472 32,000  Level Fort Worth Center
05:31PM 32.9250 -92.9983 163° South 410 472 32,000  Level Fort Worth Center
05:32PM 32.8131 -92.9619 165° South 410 472 32,000  Level Fort Worth Center
05:34PM 32.5483 -92.8778 165° South 412 474 32,000  Level Houston Center
05:35PM 32.4369 -92.8369 163° South 415 478 32,000  Level Houston Center
05:36PM 32.3053 -92.7928 164° South 411 473 32,000  Level Houston Center
05:37PM 32.1950 -92.7539 163° South 412 474 32,000  Level Houston Center
05:38PM 32.0858 -92.7167 164° South 409 471 32,000  Level Houston Center
05:39PM 31.9753 -92.7103 177° South 388 447 32,000  Level Houston Center
05:40PM 31.8856 -92.7642 207° Southwest 357 411 32,000  Level Houston Center
05:41PM 31.8086 -92.8394 220° Southwest 357 411 32,000  Level Houston Center
05:42PM 31.7161 -92.9269 219° Southwest 357 411 32,000  Level Houston Center
05:43PM 31.6392 -93.0017 220° Southwest 358 412 32,000  Level Houston Center
05:44PM 31.5625 -93.0744 219° Southwest 356 410 32,000  Level Houston Center
05:45PM 31.4836 -93.1494 219° Southwest 361 415 32,000  Level Houston Center
05:46PM 31.4053 -93.2244 219° Southwest 365 420 32,000  Level Houston Center
05:47PM 31.3147 -93.3103 219° Southwest 364 419 32,000  Level Houston Center
05:48PM 31.2311 -93.3897 219° Southwest 369 425 32,000 -480 Level Houston Center
05:49PM 31.1500 -93.4669 219° Southwest 377 434 31,000 -960 Descending Houston Center
05:51PM 31.0647 -93.5486 219° Southwest 394 453 30,000 -1,020 Descending Houston Center
05:52PM 30.9753 -93.6328 219° Southwest 411 473 29,000 -1,440 Descending Houston Center
05:53PM 30.8869 -93.7178 220° Southwest 415 478 27,100 -2,100 Descending Houston Center
05:54PM 30.7842 -93.8144 219° Southwest 399 459 24,700 -2,100 Descending Houston Center
05:55PM 30.7006 -93.8931 219° Southwest 391 450 22,800 -1,980 Descending Houston Center
05:56PM 30.6192 -93.9697 219° Southwest 382 440 20,700 -2,100 Descending Houston Center
05:57PM 30.5231 -94.0594 219° Southwest 356 410 18,300 -1,800 Descending Houston Center
05:58PM 30.4644 -94.1156 220° Southwest 360 414 17,100 -1,080 Descending Houston Center
05:58PM 30.4058 -94.1700 219° Southwest 354 407 16,700 -1,080 Descending Houston Center
05:59PM 30.3736 -94.1994 218° Southwest 352 405 16,000 -1,980 Descending Houston Center
05:59PM 30.3250 -94.2436 218° Southwest 348 400 14,700 -2,040 Descending Houston Center
06:00PM 30.2992 -94.2694 221° Southwest 346 398 13,900 -1,860 Descending Houston Center
06:00PM 30.2558 -94.3086 218° Southwest 331 381 12,800 -1,800 Descending Houston Center
06:01PM 30.2289 -94.3339 219° Southwest 328 377 12,100 -1,200 Descending Houston Center
06:02PM 30.1928 -94.3942 235° Southwest 302 348 11,500 -900 Descending Houston Center
06:02PM 30.1889 -94.4150 258° West 303 349 11,200 -1,140 Descending Houston Center
06:02PM 30.1783 -94.4808 260° West 301 346 10,500 -1,080 Descending Houston Center
06:03PM 30.1725 -94.5164 259° West 302 348 10,100 -480 Descending Houston Center
06:04PM 30.1592 -94.5872 258° West 303 349 10,000 -120 Descending Houston Center
06:04PM 30.1553 -94.6117 260° West 304 350 10,000  Level Houston Center
06:04PM 30.1444 -94.6736 259° West 308 354 10,000  Level Houston Center
06:05PM 30.1383 -94.7089 259° West 310 357 10,000 -300 Level Houston Center
06:06PM 30.1283 -94.7678 259° West 274 315 9,700 -780 Descending Houston Center
06:06PM 30.1208 -94.8147 260° West 279 321 9,200 -1,140 Descending Houston Center
06:07PM 30.1117 -94.8567 256° West 266 306 8,600 -1,080 Descending Houston Center
06:07PM 30.1072 -94.8969 263° West 264 304 8,100 -1,020 Descending Houston Center
06:08PM 30.1050 -94.9422 267° West 274 315 7,600 -1,020 Descending Houston Center
06:08PM 30.1056 -94.9847 271° West 274 315 7,100 -1,020 Descending Houston Center
06:09PM 30.1050 -95.0317 269° West 276 318 6,600 -1,020 Descending Houston Center
06:09PM 30.1061 -95.0725 272° West 276 318 6,100 -600 Descending Houston Center
06:10PM 30.1047 -95.1186 268° West 274 315 6,000 -120 Descending Houston Center
06:10PM 30.1067 -95.1578 273° West 269 310 6,000  Level Houston Center
06:11PM 30.1067 -95.2078 270° West 261 300 6,000  Level Houston Center
06:11PM 30.1067 -95.2575 270° West 263 303 6,000  Level Houston Center
06:12PM 30.1056 -95.2875 268° West 264 304 6,000 -120 Level Houston Center
06:12PM 30.1072 -95.3431 272° West 267 307 5,900 -540 Descending Houston Center
06:13PM 30.1056 -95.3792 267° West 267 307 5,400 -1,200 Descending Houston Center
06:13PM 30.1072 -95.4275 272° West 266 306 4,700 -1,140 Descending Houston Center
06:14PM 30.1069 -95.4636 269° West 263 303 4,300 -1,080 Descending Houston Center
06:14PM 30.1078 -95.5122 271° West 264 304 3,600 -1,320 Descending Houston Center
06:15PM 30.1078 -95.5408 270° West 264 304 3,100 -600 Descending Houston Center
06:15PM 30.1061 -95.5956 268° West 263 303 3,000 -120 Descending Houston Center
06:16PM 30.0972 -95.6361 256° West 268 308 3,000  Level Houston Center
06:16PM 30.0728 -95.6822 239° Southwest 264 304 3,000  Level Houston Center
06:17PM 30.0511 -95.6828 181° South 226 260 3,000  Level Houston Center
06:17PM 30.0100 -95.6653 160° South 248 285 3,000  Level Houston Center
06:18PM 30.0086 -95.5925 91° East 232 267 3,000 -60 Level Houston Center
06:20PM 30.0094 -95.5228 89° East 221 254 2,900 -360 Descending Houston Center
06:20PM 30.0053 -95.5000 102° East 198 228 2,600 -1,020 Descending Houston Center
06:21PM 30.0072 -95.4619 87° East 208 239 1,900 -1,020 Descending Houston Center
06:21PM 30.0064 -95.4419 93° East 180 207 1,600 -1,200 Descending Houston Center